createdAt,value
2017-05-19T00:00:10.164Z,17.11
2017-05-19T00:10:10.164Z,17.38
2017-05-19T00:20:10.154Z,17.17
2017-05-19T00:30:10.113Z,17.29
2017-05-19T00:40:10.296Z,17.41
2017-05-19T00:50:10.248Z,17.5
2017-05-19T01:00:10.198Z,17.54
2017-05-19T01:10:10.175Z,17.57
2017-05-19T01:20:10.140Z,17.64
2017-05-19T01:30:10.112Z,17.63
2017-05-19T01:40:10.151Z,17.5
2017-05-19T01:50:10.166Z,17.5
2017-05-19T02:00:10.197Z,17.63
2017-05-19T02:10:10.245Z,17.46
2017-05-19T02:20:10.182Z,17.17
2017-05-19T02:30:10.309Z,17.04
2017-05-19T02:40:10.224Z,16.93
2017-05-19T02:50:10.296Z,16.74
2017-05-19T03:00:10.207Z,16.8
2017-05-19T03:10:10.322Z,16.75
2017-05-19T03:20:10.232Z,16.89
2017-05-19T03:30:10.384Z,17.03
2017-05-19T03:40:10.270Z,17.1
2017-05-19T03:50:10.253Z,17.04
2017-05-19T04:00:10.364Z,17.08
2017-05-19T04:10:10.264Z,17.3
2017-05-19T04:20:10.341Z,17.53
2017-05-19T04:30:10.323Z,17.46
2017-05-19T04:40:10.317Z,17.64
2017-05-19T04:50:10.333Z,17.74
2017-05-19T05:00:10.430Z,17.94
2017-05-19T05:10:10.381Z,18.15
2017-05-19T05:20:10.349Z,18.21
2017-05-19T05:30:10.398Z,18.24
2017-05-19T05:40:10.456Z,18.21
2017-05-19T05:50:10.404Z,18.22
2017-05-19T06:00:10.448Z,18.22
2017-05-19T06:10:10.455Z,18.19
2017-05-19T06:20:10.465Z,18.28
2017-05-19T06:30:10.483Z,18.42
2017-05-19T06:40:10.487Z,18.59
2017-05-19T06:50:10.464Z,18.8
2017-05-19T07:00:10.567Z,18.87
2017-05-19T07:10:10.486Z,19.13
2017-05-19T07:20:10.589Z,19.32
2017-05-19T07:30:10.496Z,18.22
2017-05-19T07:40:11.525Z,18.15
2017-05-19T07:50:12.617Z,17.66
2017-05-19T08:00:27.791Z,17.32
2017-05-19T08:30:24.465Z,16.58
2017-05-19T08:40:14.521Z,16.59
2017-05-19T08:50:19.721Z,16.11
2017-05-19T09:00:15.629Z,16.27
2017-05-19T09:10:15.296Z,16.73
2017-05-19T09:20:10.539Z,16.93
2017-05-19T09:30:10.554Z,17.11
2017-05-19T09:40:21.838Z,16.83
2017-05-19T10:00:21.059Z,16.73
2017-05-19T10:10:10.543Z,16.98
2017-05-19T10:20:10.546Z,17.51
2017-05-19T10:30:10.573Z,17.87
2017-05-19T10:40:10.553Z,18.57
2017-05-19T10:50:10.613Z,18.59
2017-05-19T11:00:10.544Z,18.5
2017-05-19T11:10:10.576Z,18.58
2017-05-19T11:20:10.676Z,17.08
2017-05-19T11:30:10.620Z,16.59
2017-05-19T11:40:10.637Z,16.37
2017-05-19T11:50:10.750Z,16.11
2017-05-19T12:00:10.626Z,16.41
2017-05-19T12:10:10.672Z,16.38
2017-05-19T12:20:10.650Z,16.38
2017-05-19T12:30:10.745Z,16.31
2017-05-19T12:40:10.686Z,16.31
2017-05-19T12:50:10.685Z,16.35
2017-05-19T13:00:10.837Z,16.3
2017-05-19T13:10:10.651Z,16.12
2017-05-19T13:20:11.267Z,16.38
2017-05-19T13:30:10.782Z,15.97
2017-05-19T13:40:10.636Z,15.52
2017-05-19T13:50:10.576Z,15.15
2017-05-19T14:00:10.664Z,15.35
2017-05-19T14:10:10.607Z,15.39
2017-05-19T14:20:10.569Z,15.26
2017-05-19T14:30:10.571Z,15.01
2017-05-19T14:40:10.563Z,15.24
2017-05-19T14:50:10.626Z,15.12
2017-05-19T15:00:10.594Z,14.81
2017-05-19T15:10:10.601Z,14.65
2017-05-19T15:20:10.631Z,14.28
2017-05-19T15:30:10.605Z,14.17
2017-05-19T15:40:10.616Z,13.96
2017-05-19T15:50:10.584Z,13.92
2017-05-19T16:00:10.576Z,13.83
2017-05-19T16:10:10.564Z,13.87
2017-05-19T16:20:10.565Z,13.8
2017-05-19T16:30:10.674Z,13.89
2017-05-19T16:40:10.781Z,13.71
2017-05-19T16:50:10.645Z,13.81
2017-05-19T17:00:10.558Z,13.91
2017-05-19T17:10:10.610Z,14.1
2017-05-19T17:20:10.552Z,14.1
2017-05-19T17:30:10.554Z,14.07
2017-05-19T17:40:10.600Z,14.07
2017-05-19T17:50:10.668Z,13.89
2017-05-19T18:00:10.560Z,13.91
2017-05-19T18:10:10.568Z,13.76
2017-05-19T18:20:10.631Z,13.65
2017-05-19T18:30:10.586Z,13.46
2017-05-19T18:40:12.131Z,13.46
2017-05-19T19:10:10.562Z,13.49
2017-05-19T19:20:10.548Z,13.36
2017-05-19T19:30:10.550Z,13.27
2017-05-19T19:40:11.448Z,13.21
2017-05-19T19:50:10.536Z,13
2017-05-19T20:00:10.546Z,13
2017-05-19T20:10:10.571Z,12.96
2017-05-19T20:20:10.536Z,12.88
2017-05-19T20:30:10.539Z,12.93
2017-05-19T20:40:10.558Z,13.04
2017-05-19T20:50:10.534Z,13.11
2017-05-19T21:00:10.591Z,13.18
2017-05-19T21:10:10.563Z,13.06
2017-05-19T21:20:10.534Z,13.11
2017-05-19T21:30:10.539Z,13.12
2017-05-19T21:40:10.558Z,13.12
2017-05-19T21:50:10.526Z,13.17
2017-05-19T22:00:10.521Z,13.14
2017-05-19T22:10:10.580Z,13.2
2017-05-19T22:20:10.524Z,13.22
2017-05-19T22:30:10.527Z,13.22
2017-05-19T22:40:10.740Z,13.04
2017-05-19T22:50:10.702Z,13
2017-05-19T23:00:10.560Z,13.03
2017-05-19T23:10:10.526Z,13.12
2017-05-19T23:20:10.530Z,13.02
2017-05-19T23:30:11.299Z,13.09
2017-05-19T23:40:10.533Z,12.96
2017-05-19T23:50:10.572Z,12.85
